G.l. 501 — WDG7669 — position and weather

sailwx.info

Track history (hours):
 
Tides and Currents Weather Stations Pressure Air Temp Water Temp Dewpoint Dewpoint Depression Visibility Wind Speed Wind Dir Waves Ship Positions

G.l. 501

Owner: Great Lakes Dredge & Dock Company, LLC, Oak Brook, IL. More information available from US FCC via Universal Licensing System and Coast Guard Vessel Documentation Center.

Last reported at 2018-May-02 08:12 UTC. Time now 2018-Jun-19 04:30 UTC.
Position N 34°15' W 076°31'.
Warning: this ship's position is 47 days out of date.

Length 90 m.

Type: Dredging. MMSI: 367569630.

Date/timePositionNaut miles runAvg speedWind from/ knotsBaromVisibWave heightAir tempDewpointWater temp
2018-May-02 08:12N 34°15' W 076°31'2 8.7
2018-May-02 08:00N 34°16' W 076°29'5 8.7
2018-May-02 07:28N 34°19' W 076°25'6 8.6
2018-May-02 06:46N 34°23' W 076°20'2 8.6
2018-May-02 06:30N 34°25' W 076°17'5 9.0
2018-May-02 05:57N 34°28' W 076°13'147 8.2
2018-May-01 12:04N 36°54' W 075°56'110.2
2018-May-01 11:58N 36°55' W 075°57'5 9.9
2018-May-01 11:29N 36°57' W 076°02'14 4.6
2018-May-01 08:24N 36°51' W 076°18'2 2.1
2018-May-01 07:35N 36°50' W 076°16'0 0.5
2018-May-01 07:10N 36°50' W 076°16'0 0.0
2018-May-01 06:58N 36°50' W 076°16'0 0.0
2018-May-01 06:28N 36°50' W 076°16'0 0.0
2018-May-01 05:58N 36°50' W 076°16'0 0.0
2018-May-01 05:28N 36°50' W 076°16'0 0.0
2018-May-01 04:58N 36°50' W 076°16'0 0.0
2018-May-01 04:28N 36°50' W 076°16'0 0.0
2018-May-01 03:58N 36°50' W 076°16'0 0.0
2018-May-01 03:28N 36°50' W 076°16'0 0.0
2018-May-01 02:58N 36°50' W 076°16'0 0.0
2018-May-01 02:28N 36°50' W 076°16'0 0.0
2018-May-01 01:58N 36°50' W 076°16'0 0.0
2018-May-01 01:28N 36°50' W 076°16'0 0.0
2018-May-01 00:28N 36°50' W 076°16'0 0.0
2018-Apr-30 23:46N 36°50' W 076°16'0 0.0
2018-Apr-30 23:16N 36°50' W 076°16'0 0.0
2018-Apr-30 22:04N 36°50' W 076°16'0 0.0
2018-Apr-30 21:58N 36°50' W 076°16'0 0.0
2018-Apr-30 19:46N 36°50' W 076°16'0 0.0
2018-Apr-30 19:28N 36°50' W 076°16'0 0.0
2018-Apr-30 16:10N 36°50' W 076°16'0 0.0
2018-Apr-30 15:52N 36°50' W 076°16'0 0.0
2018-Apr-30 14:34N 36°50' W 076°16'0 0.0
2018-Apr-30 14:28N 36°50' W 076°16'0 0.0
2018-Apr-30 13:58N 36°50' W 076°16'0 0.0
2018-Apr-30 13:22N 36°50' W 076°16'0 0.0
2018-Apr-30 12:58N 36°50' W 076°16'0 0.0
2018-Apr-30 12:28N 36°50' W 076°16'0 0.0
2018-Apr-30 11:40N 36°50' W 076°16'0 0.0
2018-Apr-30 11:28N 36°50' W 076°16'0 0.0
2018-Apr-30 10:58N 36°50' W 076°16'0 0.0
2018-Apr-30 10:28N 36°50' W 076°16'0 0.0
2018-Apr-30 09:58N 36°50' W 076°16'0 0.0
2018-Apr-30 09:28N 36°50' W 076°16'0 0.0
2018-Apr-30 08:58N 36°50' W 076°16'0 0.0
2018-Apr-30 08:28N 36°50' W 076°16'0 0.0
2018-Apr-30 07:58N 36°50' W 076°16'0 0.0
2018-Apr-30 07:28N 36°50' W 076°16'0 0.0
2018-Apr-30 06:58N 36°50' W 076°16'0 0.0
2018-Apr-30 06:28N 36°50' W 076°16'0 0.0
2018-Apr-30 05:58N 36°50' W 076°16'0 0.0
2018-Apr-30 05:28N 36°50' W 076°16'0 0.0
2018-Apr-30 04:52N 36°50' W 076°16'0 0.0
2018-Apr-30 04:28N 36°50' W 076°16'0 0.0
2018-Apr-30 03:58N 36°50' W 076°16'0 0.0
2018-Apr-30 03:25N 36°50' W 076°16'0 0.0
2018-Apr-30 02:43N 36°50' W 076°16'0 0.0
2018-Apr-30 02:25N 36°50' W 076°16'0 0.0
2018-Apr-30 01:58N 36°50' W 076°16'0 0.0
2018-Apr-30 01:28N 36°50' W 076°16'0 0.0
2018-Apr-30 00:58N 36°50' W 076°16'0 0.0
2018-Apr-30 00:28N 36°50' W 076°16'0 0.0
2018-Apr-29 23:58N 36°50' W 076°16'0 0.0
2018-Apr-29 23:28N 36°50' W 076°16'0 0.0
2018-Apr-29 22:55N 36°50' W 076°16'0 0.0
2018-Apr-29 22:28N 36°50' W 076°16'0 0.0
2018-Apr-29 21:58N 36°50' W 076°16'0 0.0
2018-Apr-29 20:16N 36°50' W 076°16'0 0.0
2018-Apr-29 19:58N 36°50' W 076°16'0 0.0
2018-Apr-29 19:25N 36°50' W 076°16'0 0.0
2018-Apr-29 18:58N 36°50' W 076°16'0 0.0
2018-Apr-29 18:28N 36°50' W 076°16'0 0.0
2018-Apr-29 17:55N 36°50' W 076°16'0 0.0
2018-Apr-29 17:16N 36°50' W 076°16'0 0.0
2018-Apr-29 16:58N 36°50' W 076°16'0 0.0
2018-Apr-29 16:22N 36°50' W 076°16'0 0.0
2018-Apr-29 15:58N 36°50' W 076°16'0 0.0
2018-Apr-29 15:25N 36°50' W 076°16'0 0.0
2018-Apr-29 14:58N 36°50' W 076°16'0 0.0
2018-Apr-29 14:28N 36°50' W 076°16'0 0.0
2018-Apr-29 13:58N 36°50' W 076°16'0 0.0
2018-Apr-29 13:28N 36°50' W 076°16'0 0.0
2018-Apr-29 12:58N 36°50' W 076°16'0 0.0
2018-Apr-29 12:28N 36°50' W 076°16'0 0.0
2018-Apr-29 11:55N 36°50' W 076°16'0 0.0
2018-Apr-29 11:28N 36°50' W 076°16'0 0.0
2018-Apr-29 10:58N 36°50' W 076°16'0 0.0
2018-Apr-29 10:28N 36°50' W 076°16'0 0.0
2018-Apr-29 09:58N 36°50' W 076°16'0 0.0
2018-Apr-29 09:28N 36°50' W 076°16'0 0.0
2018-Apr-29 08:58N 36°50' W 076°16'0 0.0
2018-Apr-29 08:28N 36°50' W 076°16'0 0.0
2018-Apr-29 07:58N 36°50' W 076°16'0 0.0
2018-Apr-29 07:28N 36°50' W 076°16'0 0.0
2018-Apr-29 06:58N 36°50' W 076°16'0 0.0
2018-Apr-29 06:28N 36°50' W 076°16'0 0.0
2018-Apr-29 05:58N 36°50' W 076°16'0 0.0
2018-Apr-29 05:25N 36°50' W 076°16'0 0.0
2018-Apr-29 04:58N 36°50' W 076°16'0 0.0
2018-Apr-29 04:28N 36°50' W 076°16'0 0.0
2018-Apr-29 03:58N 36°50' W 076°16'0 0.0
2018-Apr-29 02:10N 36°50' W 076°16'0 0.0
2018-Apr-29 01:58N 36°50' W 076°16'0 0.0
2018-Apr-29 01:28N 36°50' W 076°16'0 0.0
2018-Apr-29 00:58N 36°50' W 076°16'0 0.0
2018-Apr-29 00:28N 36°50' W 076°16'0 0.0
2018-Apr-28 23:58N 36°50' W 076°16'0 0.0
2018-Apr-28 23:28N 36°50' W 076°16'0 0.0
2018-Apr-28 22:58N 36°50' W 076°16'0 0.0
2018-Apr-28 22:28N 36°50' W 076°16'0 0.0
2018-Apr-28 21:58N 36°50' W 076°16'0 0.0
2018-Apr-28 21:10N 36°50' W 076°16'0 0.0
2018-Apr-28 20:58N 36°50' W 076°16'0 0.0
2018-Apr-28 20:22N 36°50' W 076°16'0 0.0
2018-Apr-28 19:13N 36°50' W 076°16'0 0.0
2018-Apr-28 18:55N 36°50' W 076°16'0 0.0
2018-Apr-28 18:28N 36°50' W 076°16'0 0.0
2018-Apr-28 17:58N 36°50' W 076°16'0 0.0
2018-Apr-28 17:28N 36°50' W 076°16'0 0.0
2018-Apr-28 16:58N 36°50' W 076°16'0 0.0
2018-Apr-28 16:28N 36°50' W 076°16'0 0.0
2018-Apr-28 15:55N 36°50' W 076°16'0 0.0
2018-Apr-28 15:28N 36°50' W 076°16'0 0.0
2018-Apr-28 14:55N 36°50' W 076°16'0 0.0
2018-Apr-28 14:28N 36°50' W 076°16'0 0.0
2018-Apr-28 13:58N 36°50' W 076°16'0 0.0
2018-Apr-28 13:28N 36°50' W 076°16'0 0.0
2018-Apr-28 12:55N 36°50' W 076°16'0 0.0
2018-Apr-28 12:28N 36°50' W 076°16'0 0.0
2018-Apr-28 11:58N 36°50' W 076°16'0 0.0
2018-Apr-28 11:28N 36°50' W 076°16'0 0.0
2018-Apr-28 10:58N 36°50' W 076°16'0 0.0
2018-Apr-28 10:28N 36°50' W 076°16'0 0.0
2018-Apr-28 09:58N 36°50' W 076°16'0 0.0
2018-Apr-28 09:28N 36°50' W 076°16'0 0.0
2018-Apr-28 08:58N 36°50' W 076°16'0 0.0
2018-Apr-28 08:28N 36°50' W 076°16'0 0.0
2018-Apr-28 07:58N 36°50' W 076°16'0 0.0
2018-Apr-28 07:28N 36°50' W 076°16'0 0.0
2018-Apr-28 06:58N 36°50' W 076°16'0 0.0
2018-Apr-28 06:25N 36°50' W 076°16'0 0.0
2018-Apr-28 05:58N 36°50' W 076°16'0 0.0
2018-Apr-28 04:55N 36°50' W 076°16'0 0.0
2018-Apr-28 04:28N 36°50' W 076°16'0 0.0
2018-Apr-28 03:58N 36°50' W 076°16'0 0.0
2018-Apr-28 03:25N 36°50' W 076°16'0 0.0
2018-Apr-28 02:58N 36°50' W 076°16'0 0.0
2018-Apr-28 02:28N 36°50' W 076°16'0 0.0
2018-Apr-28 01:58N 36°50' W 076°16'0 0.0
2018-Apr-28 01:25N 36°50' W 076°16'0 0.0
2018-Apr-28 00:58N 36°50' W 076°16'0 0.0
2018-Apr-28 00:28N 36°50' W 076°16'0 0.0
2018-Apr-27 23:58N 36°50' W 076°16'0 0.0
2018-Apr-27 22:58N 36°50' W 076°16'0 0.0
2018-Apr-27 21:16N 36°50' W 076°16'0 0.0
2018-Apr-27 20:52N 36°50' W 076°16'0 0.0
2018-Apr-27 20:19N 36°50' W 076°16'0 0.0
2018-Apr-27 16:58N 36°50' W 076°16'0 0.0
2018-Apr-27 14:28N 36°50' W 076°16'0 0.0
2018-Apr-27 13:40N 36°50' W 076°16'0 0.0
2018-Apr-27 13:22N 36°50' W 076°16'0 0.0
2018-Apr-27 11:46N 36°50' W 076°16'0 0.0
2018-Apr-27 11:22N 36°50' W 076°16'0 0.0
2018-Apr-27 10:55N 36°50' W 076°16'0 0.0
2018-Apr-27 10:22N 36°50' W 076°16'0 0.0
2018-Apr-27 09:34N 36°50' W 076°16'0 0.0
2018-Apr-27 09:28N 36°50' W 076°16'0 0.0
2018-Apr-27 08:52N 36°50' W 076°16'0 0.0
2018-Apr-27 08:28N 36°50' W 076°16'0 0.0
2018-Apr-27 07:58N 36°50' W 076°16'0 0.0
2018-Apr-27 07:28N 36°50' W 076°16'0 0.0
2018-Apr-27 06:58N 36°50' W 076°16'0 0.0
2018-Apr-27 06:28N 36°50' W 076°16'0 0.0
2018-Apr-27 05:58N 36°50' W 076°16'0 0.0
2018-Apr-27 05:28N 36°50' W 076°16'0 0.0
2018-Apr-27 04:58N 36°50' W 076°16'0 0.0
2018-Apr-27 04:28N 36°50' W 076°16'0 0.0
2018-Apr-27 03:52N 36°50' W 076°16'0 0.0
2018-Apr-27 03:28N 36°50' W 076°16'0 0.0
2018-Apr-27 02:58N 36°50' W 076°16'0 0.0
2018-Apr-27 02:28N 36°50' W 076°16'0 0.0
2018-Apr-27 01:58N 36°50' W 076°16'0 0.0
2018-Apr-27 01:22N 36°50' W 076°16'0 0.0
2018-Apr-27 00:58N 36°50' W 076°16'0 0.0
2018-Apr-27 00:28N 36°50' W 076°16'0 0.0
2018-Apr-26 23:58N 36°50' W 076°16'0 0.0
2018-Apr-26 23:19N 36°50' W 076°16'0 0.0
2018-Apr-26 22:58N 36°50' W 076°16'0 0.0
2018-Apr-26 22:28N 36°50' W 076°16'0 0.0
2018-Apr-26 21:58N 36°50' W 076°16'0 0.0
2018-Apr-26 21:25N 36°50' W 076°16'0 0.0
2018-Apr-26 20:10N 36°50' W 076°16'0 0.0
2018-Apr-26 19:58N 36°50' W 076°16'0 0.0
2018-Apr-26 19:22N 36°50' W 076°16'0 0.0
2018-Apr-26 18:28N 36°50' W 076°16'0 0.0
2018-Apr-26 17:58N 36°50' W 076°16'0 0.0
2018-Apr-26 17:28N 36°50' W 076°16'0 0.0
2018-Apr-26 16:40N 36°50' W 076°16'0 0.0
2018-Apr-26 14:49N 36°50' W 076°16'0 0.0
2018-Apr-26 14:28N 36°50' W 076°16'0 0.0
2018-Apr-26 13:58N 36°50' W 076°16'0 0.0
2018-Apr-26 13:28N 36°50' W 076°16'0 0.0
2018-Apr-26 12:58N 36°50' W 076°16'0 0.0
2018-Apr-26 12:28N 36°50' W 076°16'0 0.0
2018-Apr-26 11:58N 36°50' W 076°16'0 0.0
2018-Apr-26 11:28N 36°50' W 076°16'0 0.0
2018-Apr-26 10:58N 36°50' W 076°16'0 0.0
2018-Apr-26 10:28N 36°50' W 076°16'0 0.0
2018-Apr-26 09:58N 36°50' W 076°16'0 0.0
2018-Apr-26 09:28N 36°50' W 076°16'0 0.0
2018-Apr-26 08:52N 36°50' W 076°16'0 0.0
2018-Apr-26 08:28N 36°50' W 076°16'0 0.0
2018-Apr-26 07:58N 36°50' W 076°16'0 0.0
2018-Apr-26 07:28N 36°50' W 076°16'0 0.0
2018-Apr-26 06:58N 36°50' W 076°16'0 0.0
2018-Apr-26 06:28N 36°50' W 076°16'0 0.0
2018-Apr-26 05:58N 36°50' W 076°16'0 0.0
2018-Apr-26 05:28N 36°50' W 076°16'0 0.0
2018-Apr-26 04:58N 36°50' W 076°16'0 0.0
2018-Apr-26 04:28N 36°50' W 076°16'0 0.0
2018-Apr-26 03:58N 36°50' W 076°16'0 0.0
2018-Apr-26 03:28N 36°50' W 076°16'0 0.0
2018-Apr-26 02:58N 36°50' W 076°16'0 0.0
2018-Apr-26 02:28N 36°50' W 076°16'0 0.0
2018-Apr-26 01:58N 36°50' W 076°16'0 0.0
2018-Apr-26 01:28N 36°50' W 076°16'0 0.0
2018-Apr-26 00:58N 36°50' W 076°16'0 0.0
2018-Apr-26 00:28N 36°50' W 076°16'0 0.0
2018-Apr-25 23:58N 36°50' W 076°16'0 0.0
2018-Apr-25 23:28N 36°50' W 076°16'0 0.0
2018-Apr-25 22:58N 36°50' W 076°16'0 0.0
2018-Apr-25 22:28N 36°50' W 076°16'0 0.0
2018-Apr-25 21:58N 36°50' W 076°16'0 0.0
2018-Apr-25 21:28N 36°50' W 076°16'0 0.0
2018-Apr-25 05:10N 36°50' W 076°16'0 0.0
2018-Apr-25 04:22N 36°50' W 076°16'0 0.0
2018-Apr-25 03:52N 36°50' W 076°16'0 0.0
2018-Apr-25 03:28N 36°50' W 076°16'0 0.0
2018-Apr-25 02:52N 36°50' W 076°16'0 0.0
2018-Apr-25 02:28N 36°50' W 076°16'0 0.0
2018-Apr-25 00:49N 36°50' W 076°16'0 0.0
2018-Apr-25 00:22N 36°50' W 076°16'0 0.0
2018-Apr-24 22:55N 36°50' W 076°16'0 0.0
2018-Apr-24 21:58N 36°50' W 076°16'0 0.0
2018-Apr-24 21:04N 36°50' W 076°16'0 0.0
2018-Apr-24 18:58N 36°50' W 076°16'0 0.0
2018-Apr-24 16:10N 36°50' W 076°16'0 0.0
2018-Apr-24 15:46N 36°50' W 076°16'0 0.0
2018-Apr-24 15:28N 36°50' W 076°16'0 0.0
2018-Apr-24 11:34N 36°50' W 076°16'0 0.0
2018-Apr-24 11:10N 36°50' W 076°16'0 0.0
2018-Apr-24 10:58N 36°50' W 076°16'0 0.0
2018-Apr-24 09:40N 36°50' W 076°16'0 0.0
2018-Apr-24 09:16N 36°50' W 076°16'0 0.0
2018-Apr-24 08:52N 36°50' W 076°16'0 0.0
2018-Apr-24 08:19N 36°50' W 076°16'0 0.0
2018-Apr-24 07:58N 36°50' W 076°16'0 0.0
2018-Apr-24 07:28N 36°50' W 076°16'0 0.0
2018-Apr-24 06:31N 36°50' W 076°16'0 0.0
2018-Apr-24 06:25N 36°50' W 076°16'0 0.0
2018-Apr-24 05:58N 36°50' W 076°16'0 0.0
2018-Apr-24 05:22N 36°50' W 076°16'0 0.0
2018-Apr-24 04:40N 36°50' W 076°16'0 0.0
2018-Apr-24 04:28N 36°50' W 076°16'0 0.0
2018-Apr-24 03:52N 36°50' W 076°16'0 0.0
2018-Apr-24 03:28N 36°50' W 076°16'0 0.0
2018-Apr-24 02:49N 36°50' W 076°16'0 0.0
2018-Apr-24 02:28N 36°50' W 076°16'0 0.0
2018-Apr-24 01:58N 36°50' W 076°16'0 0.0
2018-Apr-24 01:25N 36°50' W 076°16'0 0.0
2018-Apr-24 00:58N 36°50' W 076°16'0 0.0
2018-Apr-24 00:22N 36°50' W 076°16'0 0.0
2018-Apr-23 23:58N 36°50' W 076°16'0 0.0
2018-Apr-23 23:28N 36°50' W 076°16'0 0.0
2018-Apr-23 22:52N 36°50' W 076°16'0 0.0
2018-Apr-23 18:40N 36°50' W 076°16'0 0.0
2018-Apr-23 18:28N 36°50' W 076°16'0 0.0
2018-Apr-23 17:10N 36°50' W 076°16'0 0.0
2018-Apr-23 16:52N 36°50' W 076°16'0 0.0
2018-Apr-23 16:07N 36°50' W 076°16'0 0.0
2018-Apr-23 15:49N 36°50' W 076°16'0 0.0
2018-Apr-23 14:49N 36°50' W 076°16'0 0.0
2018-Apr-23 14:25N 36°50' W 076°16'0 0.0
2018-Apr-23 13:46N 36°50' W 076°16'0 0.0
2018-Apr-23 13:22N 36°50' W 076°16'0 0.0
2018-Apr-23 12:46N 36°50' W 076°16'0 0.0
2018-Apr-23 12:25N 36°50' W 076°16'0 0.0
2018-Apr-23 11:40N 36°50' W 076°16'0 0.0
2018-Apr-23 11:28N 36°50' W 076°16'0 0.0
2018-Apr-23 10:58N 36°50' W 076°16'0 0.0
2018-Apr-23 10:28N 36°50' W 076°16'0 0.0
2018-Apr-23 09:58N 36°50' W 076°16'0 0.0
2018-Apr-23 09:25N 36°50' W 076°16'0 0.0
2018-Apr-23 08:58N 36°50' W 076°16'0 0.0
2018-Apr-23 08:28N 36°50' W 076°16'0 0.0
2018-Apr-23 07:49N 36°50' W 076°16'0 0.0
2018-Apr-23 07:28N 36°50' W 076°16'0 0.0
2018-Apr-23 06:58N 36°50' W 076°16'0 0.0
2018-Apr-23 06:28N 36°50' W 076°16'0 0.0
2018-Apr-23 05:58N 36°50' W 076°16'0 0.0
2018-Apr-23 05:28N 36°50' W 076°16'0 0.0
2018-Apr-23 04:58N 36°50' W 076°16'0 0.0
2018-Apr-23 04:28N 36°50' W 076°16'0 0.0
2018-Apr-23 03:58N 36°50' W 076°16'0 0.0
2018-Apr-23 03:28N 36°50' W 076°16'0 0.0
2018-Apr-23 02:58N 36°50' W 076°16'0 0.0
2018-Apr-23 02:28N 36°50' W 076°16'0 0.0
2018-Apr-23 01:58N 36°50' W 076°16'0 0.0
2018-Apr-23 01:25N 36°50' W 076°16'0 0.0
2018-Apr-23 00:58N 36°50' W 076°16'0 0.0
2018-Apr-23 00:28N 36°50' W 076°16'0 0.0
2018-Apr-22 23:58N 36°50' W 076°16'0 0.0
2018-Apr-22 23:28N 36°50' W 076°16'0 0.0
2018-Apr-22 22:55N 36°50' W 076°16'0 0.0
2018-Apr-22 22:28N 36°50' W 076°16'0 0.0
2018-Apr-22 20:19N 36°50' W 076°16'0 0.0
2018-Apr-22 19:58N 36°50' W 076°16'0 0.0
2018-Apr-22 19:28N 36°50' W 076°16'0 0.0
2018-Apr-22 18:31N 36°50' W 076°16'0 0.0
2018-Apr-22 18:25N 36°50' W 076°16'0 0.0
2018-Apr-22 17:58N 36°50' W 076°16'0 0.0
2018-Apr-22 17:28N 36°50' W 076°16'0 0.0
2018-Apr-22 16:07N 36°50' W 076°16'0 0.0
2018-Apr-22 15:58N 36°50' W 076°16'0 0.0
2018-Apr-22 15:28N 36°50' W 076°16'0 0.0
2018-Apr-22 14:58N 36°50' W 076°16'0 0.0
2018-Apr-22 14:28N 36°50' W 076°16'0 0.0
2018-Apr-22 13:58N 36°50' W 076°16'0 0.0
2018-Apr-22 13:28N 36°50' W 076°16'0 0.0
2018-Apr-22 12:58N 36°50' W 076°16'0 0.0
2018-Apr-22 12:28N 36°50' W 076°16'0 0.0
2018-Apr-22 11:55N 36°50' W 076°16'0 0.0
2018-Apr-22 11:28N 36°50' W 076°16'0 0.0
2018-Apr-22 10:58N 36°50' W 076°16'0 0.0
2018-Apr-22 10:28N 36°50' W 076°16'0 0.0
2018-Apr-22 09:58N 36°50' W 076°16'0 0.0
2018-Apr-22 09:28N 36°50' W 076°16'0 0.0
2018-Apr-22 08:58N 36°50' W 076°16'0 0.0
2018-Apr-22 08:25N 36°50' W 076°16'  
Track history (hours):
 
Tides and Currents Weather Stations Pressure Air Temp Water Temp Dewpoint Dewpoint Depression Visibility Wind Speed Wind Dir Waves Ship Positions

G.l. 501

Owner: Great Lakes Dredge & Dock Company, LLC, Oak Brook, IL. More information available from US FCC via Universal Licensing System and Coast Guard Vessel Documentation Center.

Last reported at 2018-May-02 08:12 UTC. Time now 2018-Jun-19 04:30 UTC.
Position N 34°15' W 076°31'.
Warning: this ship's position is 47 days out of date.

Length 90 m.

Type: Dredging. MMSI: 367569630.

Date/timePositionNaut miles runAvg speedWind from/ knotsBaromVisibWave heightAir tempDewpointWater temp
2018-May-02 08:12N 34°15' W 076°31'2 8.7
2018-May-02 08:00N 34°16' W 076°29'5 8.7
2018-May-02 07:28N 34°19' W 076°25'6 8.6
2018-May-02 06:46N 34°23' W 076°20'2 8.6
2018-May-02 06:30N 34°25' W 076°17'5 9.0
2018-May-02 05:57N 34°28' W 076°13'147 8.2
2018-May-01 12:04N 36°54' W 075°56'110.2
2018-May-01 11:58N 36°55' W 075°57'5 9.9
2018-May-01 11:29N 36°57' W 076°02'14 4.6
2018-May-01 08:24N 36°51' W 076°18'2 2.1
2018-May-01 07:35N 36°50' W 076°16'0 0.5
2018-May-01 07:10N 36°50' W 076°16'0 0.0
2018-May-01 06:58N 36°50' W 076°16'0 0.0
2018-May-01 06:28N 36°50' W 076°16'0 0.0
2018-May-01 05:58N 36°50' W 076°16'0 0.0
2018-May-01 05:28N 36°50' W 076°16'0 0.0
2018-May-01 04:58N 36°50' W 076°16'0 0.0
2018-May-01 04:28N 36°50' W 076°16'0 0.0
2018-May-01 03:58N 36°50' W 076°16'0 0.0
2018-May-01 03:28N 36°50' W 076°16'0 0.0
2018-May-01 02:58N 36°50' W 076°16'0 0.0
2018-May-01 02:28N 36°50' W 076°16'0 0.0
2018-May-01 01:58N 36°50' W 076°16'0 0.0
2018-May-01 01:28N 36°50' W 076°16'0 0.0
2018-May-01 00:28N 36°50' W 076°16'0 0.0
2018-Apr-30 23:46N 36°50' W 076°16'0 0.0
2018-Apr-30 23:16N 36°50' W 076°16'0 0.0
2018-Apr-30 22:04N 36°50' W 076°16'0 0.0
2018-Apr-30 21:58N 36°50' W 076°16'0 0.0
2018-Apr-30 19:46N 36°50' W 076°16'0 0.0
2018-Apr-30 19:28N 36°50' W 076°16'0 0.0
2018-Apr-30 16:10N 36°50' W 076°16'0 0.0
2018-Apr-30 15:52N 36°50' W 076°16'0 0.0
2018-Apr-30 14:34N 36°50' W 076°16'0 0.0
2018-Apr-30 14:28N 36°50' W 076°16'0 0.0
2018-Apr-30 13:58N 36°50' W 076°16'0 0.0
2018-Apr-30 13:22N 36°50' W 076°16'0 0.0
2018-Apr-30 12:58N 36°50' W 076°16'0 0.0
2018-Apr-30 12:28N 36°50' W 076°16'0 0.0
2018-Apr-30 11:40N 36°50' W 076°16'0 0.0
2018-Apr-30 11:28N 36°50' W 076°16'0 0.0
2018-Apr-30 10:58N 36°50' W 076°16'0 0.0
2018-Apr-30 10:28N 36°50' W 076°16'0 0.0
2018-Apr-30 09:58N 36°50' W 076°16'0 0.0
2018-Apr-30 09:28N 36°50' W 076°16'0 0.0
2018-Apr-30 08:58N 36°50' W 076°16'0 0.0
2018-Apr-30 08:28N 36°50' W 076°16'0 0.0
2018-Apr-30 07:58N 36°50' W 076°16'0 0.0
2018-Apr-30 07:28N 36°50' W 076°16'0 0.0
2018-Apr-30 06:58N 36°50' W 076°16'0 0.0
2018-Apr-30 06:28N 36°50' W 076°16'0 0.0
2018-Apr-30 05:58N 36°50' W 076°16'0 0.0
2018-Apr-30 05:28N 36°50' W 076°16'0 0.0
2018-Apr-30 04:52N 36°50' W 076°16'0 0.0
2018-Apr-30 04:28N 36°50' W 076°16'0 0.0
2018-Apr-30 03:58N 36°50' W 076°16'0 0.0
2018-Apr-30 03:25N 36°50' W 076°16'0 0.0
2018-Apr-30 02:43N 36°50' W 076°16'0 0.0
2018-Apr-30 02:25N 36°50' W 076°16'0 0.0
2018-Apr-30 01:58N 36°50' W 076°16'0 0.0
2018-Apr-30 01:28N 36°50' W 076°16'0 0.0
2018-Apr-30 00:58N 36°50' W 076°16'0 0.0
2018-Apr-30 00:28N 36°50' W 076°16'0 0.0
2018-Apr-29 23:58N 36°50' W 076°16'0 0.0
2018-Apr-29 23:28N 36°50' W 076°16'0 0.0
2018-Apr-29 22:55N 36°50' W 076°16'0 0.0
2018-Apr-29 22:28N 36°50' W 076°16'0 0.0
2018-Apr-29 21:58N 36°50' W 076°16'0 0.0
2018-Apr-29 20:16N 36°50' W 076°16'0 0.0
2018-Apr-29 19:58N 36°50' W 076°16'0 0.0
2018-Apr-29 19:25N 36°50' W 076°16'0 0.0
2018-Apr-29 18:58N 36°50' W 076°16'0 0.0
2018-Apr-29 18:28N 36°50' W 076°16'0 0.0
2018-Apr-29 17:55N 36°50' W 076°16'0 0.0
2018-Apr-29 17:16N 36°50' W 076°16'0 0.0
2018-Apr-29 16:58N 36°50' W 076°16'0 0.0
2018-Apr-29 16:22N 36°50' W 076°16'0 0.0
2018-Apr-29 15:58N 36°50' W 076°16'0 0.0
2018-Apr-29 15:25N 36°50' W 076°16'0 0.0
2018-Apr-29 14:58N 36°50' W 076°16'0 0.0
2018-Apr-29 14:28N 36°50' W 076°16'0 0.0
2018-Apr-29 13:58N 36°50' W 076°16'0 0.0
2018-Apr-29 13:28N 36°50' W 076°16'0 0.0
2018-Apr-29 12:58N 36°50' W 076°16'0 0.0
2018-Apr-29 12:28N 36°50' W 076°16'0 0.0
2018-Apr-29 11:55N 36°50' W 076°16'0 0.0
2018-Apr-29 11:28N 36°50' W 076°16'0 0.0
2018-Apr-29 10:58N 36°50' W 076°16'0 0.0
2018-Apr-29 10:28N 36°50' W 076°16'0 0.0
2018-Apr-29 09:58N 36°50' W 076°16'0 0.0
2018-Apr-29 09:28N 36°50' W 076°16'0 0.0
2018-Apr-29 08:58N 36°50' W 076°16'0 0.0
2018-Apr-29 08:28N 36°50' W 076°16'0 0.0
2018-Apr-29 07:58N 36°50' W 076°16'0 0.0
2018-Apr-29 07:28N 36°50' W 076°16'0 0.0
2018-Apr-29 06:58N 36°50' W 076°16'0 0.0
2018-Apr-29 06:28N 36°50' W 076°16'0 0.0
2018-Apr-29 05:58N 36°50' W 076°16'0 0.0
2018-Apr-29 05:25N 36°50' W 076°16'0 0.0
2018-Apr-29 04:58N 36°50' W 076°16'0 0.0
2018-Apr-29 04:28N 36°50' W 076°16'0 0.0
2018-Apr-29 03:58N 36°50' W 076°16'0 0.0
2018-Apr-29 02:10N 36°50' W 076°16'0 0.0
2018-Apr-29 01:58N 36°50' W 076°16'0 0.0
2018-Apr-29 01:28N 36°50' W 076°16'0 0.0
2018-Apr-29 00:58N 36°50' W 076°16'0 0.0
2018-Apr-29 00:28N 36°50' W 076°16'0 0.0
2018-Apr-28 23:58N 36°50' W 076°16'0 0.0
2018-Apr-28 23:28N 36°50' W 076°16'0 0.0
2018-Apr-28 22:58N 36°50' W 076°16'0 0.0
2018-Apr-28 22:28N 36°50' W 076°16'0 0.0
2018-Apr-28 21:58N 36°50' W 076°16'0 0.0
2018-Apr-28 21:10N 36°50' W 076°16'0 0.0
2018-Apr-28 20:58N 36°50' W 076°16'0 0.0
2018-Apr-28 20:22N 36°50' W 076°16'0 0.0
2018-Apr-28 19:13N 36°50' W 076°16'0 0.0
2018-Apr-28 18:55N 36°50' W 076°16'0 0.0
2018-Apr-28 18:28N 36°50' W 076°16'0 0.0
2018-Apr-28 17:58N 36°50' W 076°16'0 0.0
2018-Apr-28 17:28N 36°50' W 076°16'0 0.0
2018-Apr-28 16:58N 36°50' W 076°16'0 0.0
2018-Apr-28 16:28N 36°50' W 076°16'0 0.0
2018-Apr-28 15:55N 36°50' W 076°16'0 0.0
2018-Apr-28 15:28N 36°50' W 076°16'0 0.0
2018-Apr-28 14:55N 36°50' W 076°16'0 0.0
2018-Apr-28 14:28N 36°50' W 076°16'0 0.0
2018-Apr-28 13:58N 36°50' W 076°16'0 0.0
2018-Apr-28 13:28N 36°50' W 076°16'0 0.0
2018-Apr-28 12:55N 36°50' W 076°16'0 0.0
2018-Apr-28 12:28N 36°50' W 076°16'0 0.0
2018-Apr-28 11:58N 36°50' W 076°16'0 0.0
2018-Apr-28 11:28N 36°50' W 076°16'0 0.0
2018-Apr-28 10:58N 36°50' W 076°16'0 0.0
2018-Apr-28 10:28N 36°50' W 076°16'0 0.0
2018-Apr-28 09:58N 36°50' W 076°16'0 0.0
2018-Apr-28 09:28N 36°50' W 076°16'0 0.0
2018-Apr-28 08:58N 36°50' W 076°16'0 0.0
2018-Apr-28 08:28N 36°50' W 076°16'0 0.0
2018-Apr-28 07:58N 36°50' W 076°16'0 0.0
2018-Apr-28 07:28N 36°50' W 076°16'0 0.0
2018-Apr-28 06:58N 36°50' W 076°16'0 0.0
2018-Apr-28 06:25N 36°50' W 076°16'0 0.0
2018-Apr-28 05:58N 36°50' W 076°16'0 0.0
2018-Apr-28 04:55N 36°50' W 076°16'0 0.0
2018-Apr-28 04:28N 36°50' W 076°16'0 0.0
2018-Apr-28 03:58N 36°50' W 076°16'0 0.0
2018-Apr-28 03:25N 36°50' W 076°16'0 0.0
2018-Apr-28 02:58N 36°50' W 076°16'0 0.0
2018-Apr-28 02:28N 36°50' W 076°16'0 0.0
2018-Apr-28 01:58N 36°50' W 076°16'0 0.0
2018-Apr-28 01:25N 36°50' W 076°16'0 0.0
2018-Apr-28 00:58N 36°50' W 076°16'0 0.0
2018-Apr-28 00:28N 36°50' W 076°16'0 0.0
2018-Apr-27 23:58N 36°50' W 076°16'0 0.0
2018-Apr-27 22:58N 36°50' W 076°16'0 0.0
2018-Apr-27 21:16N 36°50' W 076°16'0 0.0
2018-Apr-27 20:52N 36°50' W 076°16'0 0.0
2018-Apr-27 20:19N 36°50' W 076°16'0 0.0
2018-Apr-27 16:58N 36°50' W 076°16'0 0.0
2018-Apr-27 14:28N 36°50' W 076°16'0 0.0
2018-Apr-27 13:40N 36°50' W 076°16'0 0.0
2018-Apr-27 13:22N 36°50' W 076°16'0 0.0
2018-Apr-27 11:46N 36°50' W 076°16'0 0.0
2018-Apr-27 11:22N 36°50' W 076°16'0 0.0
2018-Apr-27 10:55N 36°50' W 076°16'0 0.0
2018-Apr-27 10:22N 36°50' W 076°16'0 0.0
2018-Apr-27 09:34N 36°50' W 076°16'0 0.0
2018-Apr-27 09:28N 36°50' W 076°16'0 0.0
2018-Apr-27 08:52N 36°50' W 076°16'0 0.0
2018-Apr-27 08:28N 36°50' W 076°16'0 0.0
2018-Apr-27 07:58N 36°50' W 076°16'0 0.0
2018-Apr-27 07:28N 36°50' W 076°16'0 0.0
2018-Apr-27 06:58N 36°50' W 076°16'0 0.0
2018-Apr-27 06:28N 36°50' W 076°16'0 0.0
2018-Apr-27 05:58N 36°50' W 076°16'0 0.0
2018-Apr-27 05:28N 36°50' W 076°16'0 0.0
2018-Apr-27 04:58N 36°50' W 076°16'0 0.0
2018-Apr-27 04:28N 36°50' W 076°16'0 0.0
2018-Apr-27 03:52N 36°50' W 076°16'0 0.0
2018-Apr-27 03:28N 36°50' W 076°16'0 0.0
2018-Apr-27 02:58N 36°50' W 076°16'0 0.0
2018-Apr-27 02:28N 36°50' W 076°16'0 0.0
2018-Apr-27 01:58N 36°50' W 076°16'0 0.0
2018-Apr-27 01:22N 36°50' W 076°16'0 0.0
2018-Apr-27 00:58N 36°50' W 076°16'0 0.0
2018-Apr-27 00:28N 36°50' W 076°16'0 0.0
2018-Apr-26 23:58N 36°50' W 076°16'0 0.0
2018-Apr-26 23:19N 36°50' W 076°16'0 0.0
2018-Apr-26 22:58N 36°50' W 076°16'0 0.0
2018-Apr-26 22:28N 36°50' W 076°16'0 0.0
2018-Apr-26 21:58N 36°50' W 076°16'0 0.0
2018-Apr-26 21:25N 36°50' W 076°16'0 0.0
2018-Apr-26 20:10N 36°50' W 076°16'0 0.0
2018-Apr-26 19:58N 36°50' W 076°16'0 0.0
2018-Apr-26 19:22N 36°50' W 076°16'0 0.0
2018-Apr-26 18:28N 36°50' W 076°16'0 0.0
2018-Apr-26 17:58N 36°50' W 076°16'0 0.0
2018-Apr-26 17:28N 36°50' W 076°16'0 0.0
2018-Apr-26 16:40N 36°50' W 076°16'0 0.0
2018-Apr-26 14:49N 36°50' W 076°16'0 0.0
2018-Apr-26 14:28N 36°50' W 076°16'0 0.0
2018-Apr-26 13:58N 36°50' W 076°16'0 0.0
2018-Apr-26 13:28N 36°50' W 076°16'0 0.0
2018-Apr-26 12:58N 36°50' W 076°16'0 0.0
2018-Apr-26 12:28N 36°50' W 076°16'0 0.0
2018-Apr-26 11:58N 36°50' W 076°16'0 0.0
2018-Apr-26 11:28N 36°50' W 076°16'0 0.0
2018-Apr-26 10:58N 36°50' W 076°16'0 0.0
2018-Apr-26 10:28N 36°50' W 076°16'0 0.0
2018-Apr-26 09:58N 36°50' W 076°16'0 0.0
2018-Apr-26 09:28N 36°50' W 076°16'0 0.0
2018-Apr-26 08:52N 36°50' W 076°16'0 0.0
2018-Apr-26 08:28N 36°50' W 076°16'0 0.0
2018-Apr-26 07:58N 36°50' W 076°16'0 0.0
2018-Apr-26 07:28N 36°50' W 076°16'0 0.0
2018-Apr-26 06:58N 36°50' W 076°16'0 0.0
2018-Apr-26 06:28N 36°50' W 076°16'0 0.0
2018-Apr-26 05:58N 36°50' W 076°16'0 0.0
2018-Apr-26 05:28N 36°50' W 076°16'0 0.0
2018-Apr-26 04:58N 36°50' W 076°16'0 0.0
2018-Apr-26 04:28N 36°50' W 076°16'0 0.0
2018-Apr-26 03:58N 36°50' W 076°16'0 0.0
2018-Apr-26 03:28N 36°50' W 076°16'0 0.0
2018-Apr-26 02:58N 36°50' W 076°16'0 0.0
2018-Apr-26 02:28N 36°50' W 076°16'0 0.0
2018-Apr-26 01:58N 36°50' W 076°16'0 0.0
2018-Apr-26 01:28N 36°50' W 076°16'0 0.0
2018-Apr-26 00:58N 36°50' W 076°16'0 0.0
2018-Apr-26 00:28N 36°50' W 076°16'0 0.0
2018-Apr-25 23:58N 36°50' W 076°16'0 0.0
2018-Apr-25 23:28N 36°50' W 076°16'0 0.0
2018-Apr-25 22:58N 36°50' W 076°16'0 0.0
2018-Apr-25 22:28N 36°50' W 076°16'0 0.0
2018-Apr-25 21:58N 36°50' W 076°16'0 0.0
2018-Apr-25 21:28N 36°50' W 076°16'0 0.0
2018-Apr-25 05:10N 36°50' W 076°16'0 0.0
2018-Apr-25 04:22N 36°50' W 076°16'0 0.0
2018-Apr-25 03:52N 36°50' W 076°16'0 0.0
2018-Apr-25 03:28N 36°50' W 076°16'0 0.0
2018-Apr-25 02:52N 36°50' W 076°16'0 0.0
2018-Apr-25 02:28N 36°50' W 076°16'0 0.0
2018-Apr-25 00:49N 36°50' W 076°16'0 0.0
2018-Apr-25 00:22N 36°50' W 076°16'0 0.0
2018-Apr-24 22:55N 36°50' W 076°16'0 0.0
2018-Apr-24 21:58N 36°50' W 076°16'0 0.0
2018-Apr-24 21:04N 36°50' W 076°16'0 0.0
2018-Apr-24 18:58N 36°50' W 076°16'0 0.0
2018-Apr-24 16:10N 36°50' W 076°16'0 0.0
2018-Apr-24 15:46N 36°50' W 076°16'0 0.0
2018-Apr-24 15:28N 36°50' W 076°16'0 0.0
2018-Apr-24 11:34N 36°50' W 076°16'0 0.0
2018-Apr-24 11:10N 36°50' W 076°16'0 0.0
2018-Apr-24 10:58N 36°50' W 076°16'0 0.0
2018-Apr-24 09:40N 36°50' W 076°16'0 0.0
2018-Apr-24 09:16N 36°50' W 076°16'0 0.0
2018-Apr-24 08:52N 36°50' W 076°16'0 0.0
2018-Apr-24 08:19N 36°50' W 076°16'0 0.0
2018-Apr-24 07:58N 36°50' W 076°16'0 0.0
2018-Apr-24 07:28N 36°50' W 076°16'0 0.0
2018-Apr-24 06:31N 36°50' W 076°16'0 0.0
2018-Apr-24 06:25N 36°50' W 076°16'0 0.0
2018-Apr-24 05:58N 36°50' W 076°16'0 0.0
2018-Apr-24 05:22N 36°50' W 076°16'0 0.0
2018-Apr-24 04:40N 36°50' W 076°16'0 0.0
2018-Apr-24 04:28N 36°50' W 076°16'0 0.0
2018-Apr-24 03:52N 36°50' W 076°16'0 0.0
2018-Apr-24 03:28N 36°50' W 076°16'0 0.0
2018-Apr-24 02:49N 36°50' W 076°16'0 0.0
2018-Apr-24 02:28N 36°50' W 076°16'0 0.0
2018-Apr-24 01:58N 36°50' W 076°16'0 0.0
2018-Apr-24 01:25N 36°50' W 076°16'0 0.0
2018-Apr-24 00:58N 36°50' W 076°16'0 0.0
2018-Apr-24 00:22N 36°50' W 076°16'0 0.0
2018-Apr-23 23:58N 36°50' W 076°16'0 0.0
2018-Apr-23 23:28N 36°50' W 076°16'0 0.0
2018-Apr-23 22:52N 36°50' W 076°16'0 0.0
2018-Apr-23 18:40N 36°50' W 076°16'0 0.0
2018-Apr-23 18:28N 36°50' W 076°16'0 0.0
2018-Apr-23 17:10N 36°50' W 076°16'0 0.0
2018-Apr-23 16:52N 36°50' W 076°16'0 0.0
2018-Apr-23 16:07N 36°50' W 076°16'0 0.0
2018-Apr-23 15:49N 36°50' W 076°16'0 0.0
2018-Apr-23 14:49N 36°50' W 076°16'0 0.0
2018-Apr-23 14:25N 36°50' W 076°16'0 0.0
2018-Apr-23 13:46N 36°50' W 076°16'0 0.0
2018-Apr-23 13:22N 36°50' W 076°16'0 0.0
2018-Apr-23 12:46N 36°50' W 076°16'0 0.0
2018-Apr-23 12:25N 36°50' W 076°16'0 0.0
2018-Apr-23 11:40N 36°50' W 076°16'0 0.0
2018-Apr-23 11:28N 36°50' W 076°16'0 0.0
2018-Apr-23 10:58N 36°50' W 076°16'0 0.0
2018-Apr-23 10:28N 36°50' W 076°16'0 0.0
2018-Apr-23 09:58N 36°50' W 076°16'0 0.0
2018-Apr-23 09:25N 36°50' W 076°16'0 0.0
2018-Apr-23 08:58N 36°50' W 076°16'0 0.0
2018-Apr-23 08:28N 36°50' W 076°16'0 0.0
2018-Apr-23 07:49N 36°50' W 076°16'0 0.0
2018-Apr-23 07:28N 36°50' W 076°16'0 0.0
2018-Apr-23 06:58N 36°50' W 076°16'0 0.0
2018-Apr-23 06:28N 36°50' W 076°16'0 0.0
2018-Apr-23 05:58N 36°50' W 076°16'0 0.0
2018-Apr-23 05:28N 36°50' W 076°16'0 0.0
2018-Apr-23 04:58N 36°50' W 076°16'0 0.0
2018-Apr-23 04:28N 36°50' W 076°16'0 0.0
2018-Apr-23 03:58N 36°50' W 076°16'0 0.0
2018-Apr-23 03:28N 36°50' W 076°16'0 0.0
2018-Apr-23 02:58N 36°50' W 076°16'0 0.0
2018-Apr-23 02:28N 36°50' W 076°16'0 0.0
2018-Apr-23 01:58N 36°50' W 076°16'0 0.0
2018-Apr-23 01:25N 36°50' W 076°16'0 0.0
2018-Apr-23 00:58N 36°50' W 076°16'0 0.0
2018-Apr-23 00:28N 36°50' W 076°16'0 0.0
2018-Apr-22 23:58N 36°50' W 076°16'0 0.0
2018-Apr-22 23:28N 36°50' W 076°16'0 0.0
2018-Apr-22 22:55N 36°50' W 076°16'0 0.0
2018-Apr-22 22:28N 36°50' W 076°16'0 0.0
2018-Apr-22 20:19N 36°50' W 076°16'0 0.0
2018-Apr-22 19:58N 36°50' W 076°16'0 0.0
2018-Apr-22 19:28N 36°50' W 076°16'0 0.0
2018-Apr-22 18:31N 36°50' W 076°16'0 0.0
2018-Apr-22 18:25N 36°50' W 076°16'0 0.0
2018-Apr-22 17:58N 36°50' W 076°16'0 0.0
2018-Apr-22 17:28N 36°50' W 076°16'0 0.0
2018-Apr-22 16:07N 36°50' W 076°16'0 0.0
2018-Apr-22 15:58N 36°50' W 076°16'0 0.0
2018-Apr-22 15:28N 36°50' W 076°16'0 0.0
2018-Apr-22 14:58N 36°50' W 076°16'0 0.0
2018-Apr-22 14:28N 36°50' W 076°16'0 0.0
2018-Apr-22 13:58N 36°50' W 076°16'0 0.0
2018-Apr-22 13:28N 36°50' W 076°16'0 0.0
2018-Apr-22 12:58N 36°50' W 076°16'0 0.0
2018-Apr-22 12:28N 36°50' W 076°16'0 0.0
2018-Apr-22 11:55N 36°50' W 076°16'0 0.0
2018-Apr-22 11:28N 36°50' W 076°16'0 0.0
2018-Apr-22 10:58N 36°50' W 076°16'0 0.0
2018-Apr-22 10:28N 36°50' W 076°16'0 0.0
2018-Apr-22 09:58N 36°50' W 076°16'0 0.0
2018-Apr-22 09:28N 36°50' W 076°16'0 0.0
2018-Apr-22 08:58N 36°50' W 076°16'0 0.0
2018-Apr-22 08:25N 36°50' W 076°16'  

Dump ship's entire track history